Time;durP1;ratioP1;P1;durP2;ratioP2;P2;SDS_P1;SDS_P2;PMS_P1;PMS_P2;Temp;Humidity;BMP_temperature;BMP_pressure;BME280_temperature;BME280_humidity;BME280_pressure;Samples;Min_cycle;Max_cycle;Signal;HPM_P1;HPM_P2
2022/02/08 21:24:20;;;;;;;24.67;14.07;;;8.90;99.90;;;;;;5056278;28;20525;-73
2022/02/08 21:26:50;;;;;;;24.43;14.87;;;8.90;99.90;;;;;;5058504;28;20451;-73
2022/02/08 21:29:35;;;;;;;27.00;15.80;;;8.90;99.90;;;;;;5059239;28;20442;-72
2022/02/08 21:32:25;;;;;;;25.87;15.13;;;9.00;99.90;;;;;;5058858;28;20451;-73
2022/02/08 21:49:06;;;;;;;30.17;17.60;;;9.00;99.90;;;;;;5056053;28;20423;-72
2022/02/08 21:51:52;;;;;;;31.63;16.67;;;9.10;99.90;;;;;;5055999;28;20880;-73
2022/02/08 21:54:22;;;;;;;27.97;17.17;;;9.10;99.90;;;;;;5050237;28;20820;-72
2022/02/08 21:56:53;;;;;;;28.37;17.60;;;9.00;99.90;;;;;;5056209;28;20742;-72
2022/02/08 21:59:20;;;;;;;30.93;18.20;;;9.00;99.90;;;;;;5055912;28;20478;-72
2022/02/08 22:01:46;;;;;;;30.30;17.27;;;9.00;99.90;;;;;;5055894;28;20459;-72
2022/02/08 22:04:13;;;;;;;30.17;17.17;;;9.10;99.90;;;;;;5055901;28;20466;-72
2022/02/08 22:06:43;;;;;;;32.87;17.13;;;9.10;99.90;;;;;;5056355;28;20773;-72
2022/02/08 22:09:14;;;;;;;26.37;16.87;;;9.10;99.90;;;;;;5056196;28;20447;-73
2022/02/08 22:17:36;;;;;;;28.30;16.90;;;9.10;99.90;;;;;;5055602;28;20439;-72
2022/02/08 22:22:58;;;;;;;31.57;18.07;;;9.10;99.90;;;;;;5055473;28;20926;-72
2022/02/08 22:25:42;;;;;;;29.63;17.40;;;9.10;99.90;;;;;;5055807;28;20542;-73
2022/02/08 22:30:58;;;;;;;25.80;16.90;;;9.10;99.90;;;;;;5054639;28;21010;-70
2022/02/08 22:33:32;;;;;;;32.13;18.07;;;9.20;99.90;;;;;;5055682;28;20455;-72
2022/02/08 22:36:10;;;;;;;30.90;17.60;;;9.20;99.90;;;;;;5055312;28;20935;-71
2022/02/08 22:38:40;;;;;;;33.53;19.07;;;9.20;99.90;;;;;;5055263;28;20477;-71
2022/02/08 22:41:14;;;;;;;28.87;18.40;;;9.20;99.90;;;;;;5047855;28;20450;-71
2022/02/08 22:43:47;;;;;;;31.23;19.20;;;9.20;99.90;;;;;;5055310;28;20440;-71
2022/02/08 22:46:15;;;;;;;29.20;18.10;;;9.20;99.90;;;;;;5054268;28;20899;-71
2022/02/08 22:48:43;;;;;;;28.57;18.80;;;9.20;99.90;;;;;;5054948;28;20462;-71
2022/02/08 22:51:10;;;;;;;28.07;17.03;;;9.30;99.90;;;;;;5055193;28;20934;-71
2022/02/08 22:53:37;;;;;;;26.43;17.00;;;9.30;99.90;;;;;;5055148;28;20466;-71
2022/02/08 22:56:04;;;;;;;27.77;17.30;;;9.30;99.90;;;;;;5055006;28;20459;-71
2022/02/08 22:58:31;;;;;;;21.10;14.93;;;9.30;99.90;;;;;;5055061;28;20490;-71
2022/02/08 23:00:58;;;;;;;23.10;15.83;;;9.30;99.90;;;;;;5054703;28;20451;-71
2022/02/08 23:03:27;;;;;;;21.80;14.77;;;9.30;99.90;;;;;;5055469;28;20542;-71
2022/02/08 23:05:54;;;;;;;19.37;14.13;;;9.20;99.90;;;;;;5057744;28;20459;-71
2022/02/08 23:08:20;;;;;;;21.70;15.57;;;9.30;99.90;;;;;;5058204;28;20462;-71
2022/02/08 23:10:56;;;;;;;22.67;14.13;;;9.20;99.90;;;;;;5054802;28;20455;-71
2022/02/08 23:13:31;;;;;;;20.13;13.87;;;9.20;99.90;;;;;;5054619;28;20958;-71
2022/02/08 23:16:28;;;;;;;24.70;15.30;;;9.20;99.90;;;;;;5054384;28;20478;-71
2022/02/08 23:38:06;;;;;;;21.10;13.83;;;9.20;99.90;;;;;;5054394;28;20456;-71
2022/02/08 23:40:32;;;;;;;21.67;13.93;;;9.20;99.90;;;;;;5054390;28;20532;-71
2022/02/08 23:42:59;;;;;;;20.00;13.70;;;9.20;99.90;;;;;;5054355;28;20455;-71
2022/02/08 23:45:26;;;;;;;19.00;14.30;;;9.20;99.90;;;;;;5054350;28;20521;-71
2022/02/08 23:48:00;;;;;;;19.03;13.50;;;9.20;99.90;;;;;;5054236;28;20462;-69
2022/02/08 23:50:36;;;;;;;22.73;15.57;;;9.20;99.90;;;;;;5054308;28;20830;-70
2022/02/08 23:53:10;;;;;;;25.83;15.80;;;9.20;99.90;;;;;;5054178;28;20549;-70
2022/02/08 23:55:41;;;;;;;23.33;15.40;;;9.20;99.90;;;;;;5054340;28;20437;-70
2022/02/08 23:58:11;;;;;;;22.83;15.33;;;9.20;99.90;;;;;;5058728;28;20466;-71
